sensor_id;sensor_type;location;lat;lon;timestamp;temperature;humidity
64198;SHT31;50512;53.666;9.700;2024-02-23T00:01:03;9.42;76.69
64198;SHT31;50512;53.666;9.700;2024-02-23T00:03:30;9.22;77.77
64198;SHT31;50512;53.666;9.700;2024-02-23T00:05:58;9.12;78.38
64198;SHT31;50512;53.666;9.700;2024-02-23T00:08:25;9.08;78.56
64198;SHT31;50512;53.666;9.700;2024-02-23T00:10:51;9.26;77.37
64198;SHT31;50512;53.666;9.700;2024-02-23T00:13:18;9.22;77.60
64198;SHT31;50512;53.666;9.700;2024-02-23T00:15:44;9.02;78.79
64198;SHT31;50512;53.666;9.700;2024-02-23T00:18:11;8.98;79.59
64198;SHT31;50512;53.666;9.700;2024-02-23T00:20:38;9.11;78.96
64198;SHT31;50512;53.666;9.700;2024-02-23T00:23:06;9.05;80.19
64198;SHT31;50512;53.666;9.700;2024-02-23T00:25:32;9.11;81.08
64198;SHT31;50512;53.666;9.700;2024-02-23T00:27:59;8.85;84.71
64198;SHT31;50512;53.666;9.700;2024-02-23T00:30:25;8.34;90.75
64198;SHT31;50512;53.666;9.700;2024-02-23T00:32:52;7.81;92.81
64198;SHT31;50512;53.666;9.700;2024-02-23T00:35:19;7.57;93.77
64198;SHT31;50512;53.666;9.700;2024-02-23T00:37:45;7.49;93.12
64198;SHT31;50512;53.666;9.700;2024-02-23T00:40:13;7.37;93.69
64198;SHT31;50512;53.666;9.700;2024-02-23T00:42:40;7.37;93.05
64198;SHT31;50512;53.666;9.700;2024-02-23T00:45:07;7.30;94.08
64198;SHT31;50512;53.666;9.700;2024-02-23T00:47:34;7.37;92.75
64198;SHT31;50512;53.666;9.700;2024-02-23T00:50:02;7.37;93.60
64198;SHT31;50512;53.666;9.700;2024-02-23T00:52:28;7.37;93.34
64198;SHT31;50512;53.666;9.700;2024-02-23T00:54:55;7.34;93.60
64198;SHT31;50512;53.666;9.700;2024-02-23T00:57:22;7.34;91.98
64198;SHT31;50512;53.666;9.700;2024-02-23T00:59:54;7.40;90.36
64198;SHT31;50512;53.666;9.700;2024-02-23T01:02:21;7.46;88.95
64198;SHT31;50512;53.666;9.700;2024-02-23T01:04:47;7.43;89.97
64198;SHT31;50512;53.666;9.700;2024-02-23T01:07:14;7.40;88.95
64198;SHT31;50512;53.666;9.700;2024-02-23T01:09:40;7.29;87.93
64198;SHT31;50512;53.666;9.700;2024-02-23T01:12:07;7.20;86.77
64198;SHT31;50512;53.666;9.700;2024-02-23T01:14:35;7.08;87.81
64198;SHT31;50512;53.666;9.700;2024-02-23T01:17:02;6.99;88.39
64198;SHT31;50512;53.666;9.700;2024-02-23T01:19:28;7.03;88.42
64198;SHT31;50512;53.666;9.700;2024-02-23T01:21:54;7.06;86.61
64198;SHT31;50512;53.666;9.700;2024-02-23T01:24:24;7.02;87.06
64198;SHT31;50512;53.666;9.700;2024-02-23T01:26:53;7.01;86.94
64198;SHT31;50512;53.666;9.700;2024-02-23T01:29:19;6.99;87.29
64198;SHT31;50512;53.666;9.700;2024-02-23T01:31:47;7.01;87.33
64198;SHT31;50512;53.666;9.700;2024-02-23T01:34:13;6.96;87.44
64198;SHT31;50512;53.666;9.700;2024-02-23T01:36:40;6.98;87.41
64198;SHT31;50512;53.666;9.700;2024-02-23T01:39:07;6.96;87.03
64198;SHT31;50512;53.666;9.700;2024-02-23T01:41:33;7.01;86.35
64198;SHT31;50512;53.666;9.700;2024-02-23T01:44:01;6.99;86.81
64198;SHT31;50512;53.666;9.700;2024-02-23T01:46:27;6.95;86.86
64198;SHT31;50512;53.666;9.700;2024-02-23T01:48:55;6.94;87.10
64198;SHT31;50512;53.666;9.700;2024-02-23T01:51:22;6.91;87.08
64198;SHT31;50512;53.666;9.700;2024-02-23T01:53:50;6.89;87.05
64198;SHT31;50512;53.666;9.700;2024-02-23T01:56:17;6.85;87.78
64198;SHT31;50512;53.666;9.700;2024-02-23T01:58:45;6.85;87.41
64198;SHT31;50512;53.666;9.700;2024-02-23T02:01:11;6.85;86.79
64198;SHT31;50512;53.666;9.700;2024-02-23T02:03:38;6.85;87.11
64198;SHT31;50512;53.666;9.700;2024-02-23T02:06:06;6.78;86.25
64198;SHT31;50512;53.666;9.700;2024-02-23T02:08:34;6.73;86.65
64198;SHT31;50512;53.666;9.700;2024-02-23T02:11:01;6.71;86.61
64198;SHT31;50512;53.666;9.700;2024-02-23T02:13:27;6.70;85.98
64198;SHT31;50512;53.666;9.700;2024-02-23T02:15:54;6.63;87.31
64198;SHT31;50512;53.666;9.700;2024-02-23T02:18:20;6.63;87.54
64198;SHT31;50512;53.666;9.700;2024-02-23T02:20:52;6.56;89.25
64198;SHT31;50512;53.666;9.700;2024-02-23T02:23:20;6.37;90.39
64198;SHT31;50512;53.666;9.700;2024-02-23T02:25:52;6.30;92.06
64198;SHT31;50512;53.666;9.700;2024-02-23T02:28:18;6.29;92.06
64198;SHT31;50512;53.666;9.700;2024-02-23T02:30:45;6.25;91.08
64198;SHT31;50512;53.666;9.700;2024-02-23T02:33:11;6.23;90.01
64198;SHT31;50512;53.666;9.700;2024-02-23T02:35:38;6.22;90.13
64198;SHT31;50512;53.666;9.700;2024-02-23T02:38:04;6.19;89.41
64198;SHT31;50512;53.666;9.700;2024-02-23T02:40:32;6.16;89.41
64198;SHT31;50512;53.666;9.700;2024-02-23T02:42:58;6.11;89.09
64198;SHT31;50512;53.666;9.700;2024-02-23T02:45:25;6.08;89.06
64198;SHT31;50512;53.666;9.700;2024-02-23T02:47:51;6.08;89.22
64198;SHT31;50512;53.666;9.700;2024-02-23T02:50:18;6.05;88.95
64198;SHT31;50512;53.666;9.700;2024-02-23T02:52:45;6.03;89.75
64198;SHT31;50512;53.666;9.700;2024-02-23T02:55:11;5.98;91.47
64198;SHT31;50512;53.666;9.700;2024-02-23T02:57:39;5.92;92.21
64198;SHT31;50512;53.666;9.700;2024-02-23T03:00:09;5.90;92.51
64198;SHT31;50512;53.666;9.700;2024-02-23T03:02:36;5.87;93.23
64198;SHT31;50512;53.666;9.700;2024-02-23T03:05:03;5.78;93.36
64198;SHT31;50512;53.666;9.700;2024-02-23T03:07:30;5.78;93.45
64198;SHT31;50512;53.666;9.700;2024-02-23T03:09:56;5.77;93.08
64198;SHT31;50512;53.666;9.700;2024-02-23T03:12:23;5.77;93.02
64198;SHT31;50512;53.666;9.700;2024-02-23T03:14:51;5.78;92.41
64198;SHT31;50512;53.666;9.700;2024-02-23T03:17:17;5.74;92.62
64198;SHT31;50512;53.666;9.700;2024-02-23T03:19:43;5.78;92.10
64198;SHT31;50512;53.666;9.700;2024-02-23T03:22:10;5.79;91.69
64198;SHT31;50512;53.666;9.700;2024-02-23T03:24:36;5.81;91.48
64198;SHT31;50512;53.666;9.700;2024-02-23T03:27:03;5.82;91.50
64198;SHT31;50512;53.666;9.700;2024-02-23T03:29:29;5.84;91.80
64198;SHT31;50512;53.666;9.700;2024-02-23T03:31:57;5.88;91.59
64198;SHT31;50512;53.666;9.700;2024-02-23T03:34:24;5.84;91.42
64198;SHT31;50512;53.666;9.700;2024-02-23T03:36:50;5.87;90.26
64198;SHT31;50512;53.666;9.700;2024-02-23T03:39:17;5.88;90.43
64198;SHT31;50512;53.666;9.700;2024-02-23T03:41:43;5.78;90.23
64198;SHT31;50512;53.666;9.700;2024-02-23T03:44:10;5.71;90.37
64198;SHT31;50512;53.666;9.700;2024-02-23T03:46:36;5.71;90.89
64198;SHT31;50512;53.666;9.700;2024-02-23T03:49:04;5.70;89.98
64198;SHT31;50512;53.666;9.700;2024-02-23T03:51:30;5.68;90.46
64198;SHT31;50512;53.666;9.700;2024-02-23T03:53:58;5.56;90.17
64198;SHT31;50512;53.666;9.700;2024-02-23T03:56:24;5.58;89.88
64198;SHT31;50512;53.666;9.700;2024-02-23T03:58:51;5.51;90.12
64198;SHT31;50512;53.666;9.700;2024-02-23T04:01:17;5.46;89.79
64198;SHT31;50512;53.666;9.700;2024-02-23T04:03:43;5.42;89.56
64198;SHT31;50512;53.666;9.700;2024-02-23T04:06:11;5.30;89.92
64198;SHT31;50512;53.666;9.700;2024-02-23T04:08:38;5.25;90.44
64198;SHT31;50512;53.666;9.700;2024-02-23T04:11:04;5.20;90.37
64198;SHT31;50512;53.666;9.700;2024-02-23T04:13:30;5.25;90.70
64198;SHT31;50512;53.666;9.700;2024-02-23T04:15:57;5.26;89.88
64198;SHT31;50512;53.666;9.700;2024-02-23T04:18:23;5.28;90.20
64198;SHT31;50512;53.666;9.700;2024-02-23T04:20:50;5.26;90.44
64198;SHT31;50512;53.666;9.700;2024-02-23T04:23:18;5.32;90.27
64198;SHT31;50512;53.666;9.700;2024-02-23T04:25:44;5.30;91.01
64198;SHT31;50512;53.666;9.700;2024-02-23T04:28:11;5.33;90.68
64198;SHT31;50512;53.666;9.700;2024-02-23T04:30:37;5.29;90.42
64198;SHT31;50512;53.666;9.700;2024-02-23T04:33:04;5.32;90.52
64198;SHT31;50512;53.666;9.700;2024-02-23T04:35:30;5.35;90.74
64198;SHT31;50512;53.666;9.700;2024-02-23T04:37:57;5.35;91.35
64198;SHT31;50512;53.666;9.700;2024-02-23T04:40:24;5.42;90.81
64198;SHT31;50512;53.666;9.700;2024-02-23T04:42:51;5.36;90.77
64198;SHT31;50512;53.666;9.700;2024-02-23T04:45:17;5.35;90.45
64198;SHT31;50512;53.666;9.700;2024-02-23T04:47:44;5.42;90.15
64198;SHT31;50512;53.666;9.700;2024-02-23T04:50:12;5.44;89.69
64198;SHT31;50512;53.666;9.700;2024-02-23T04:52:38;5.54;89.86
64198;SHT31;50512;53.666;9.700;2024-02-23T04:55:05;5.54;90.27
64198;SHT31;50512;53.666;9.700;2024-02-23T04:57:33;5.50;89.72
64198;SHT31;50512;53.666;9.700;2024-02-23T04:59:59;5.54;90.30
64198;SHT31;50512;53.666;9.700;2024-02-23T05:02:27;5.57;90.28
64198;SHT31;50512;53.666;9.700;2024-02-23T05:04:59;5.60;89.79
64198;SHT31;50512;53.666;9.700;2024-02-23T05:07:25;5.58;90.34
64198;SHT31;50512;53.666;9.700;2024-02-23T05:09:51;5.58;89.73
64198;SHT31;50512;53.666;9.700;2024-02-23T05:12:18;5.53;90.46
64198;SHT31;50512;53.666;9.700;2024-02-23T05:14:46;5.53;89.85
64198;SHT31;50512;53.666;9.700;2024-02-23T05:17:12;5.50;90.31
64198;SHT31;50512;53.666;9.700;2024-02-23T05:19:38;5.50;90.64
64198;SHT31;50512;53.666;9.700;2024-02-23T05:22:05;5.51;90.21
64198;SHT31;50512;53.666;9.700;2024-02-23T05:24:32;5.50;90.16
64198;SHT31;50512;53.666;9.700;2024-02-23T05:26:58;5.43;90.72
64198;SHT31;50512;53.666;9.700;2024-02-23T05:29:27;5.39;90.89
64198;SHT31;50512;53.666;9.700;2024-02-23T05:31:55;5.36;90.82
64198;SHT31;50512;53.666;9.700;2024-02-23T05:34:21;5.40;90.08
64198;SHT31;50512;53.666;9.700;2024-02-23T05:36:48;5.37;90.21
64198;SHT31;50512;53.666;9.700;2024-02-23T05:39:16;5.37;89.97
64198;SHT31;50512;53.666;9.700;2024-02-23T05:41:42;5.40;89.45
64198;SHT31;50512;53.666;9.700;2024-02-23T05:44:09;5.40;89.69
64198;SHT31;50512;53.666;9.700;2024-02-23T05:46:36;5.43;89.17
64198;SHT31;50512;53.666;9.700;2024-02-23T05:49:04;5.47;88.94
64198;SHT31;50512;53.666;9.700;2024-02-23T05:51:31;5.42;89.31
64198;SHT31;50512;53.666;9.700;2024-02-23T05:53:58;5.40;89.07
64198;SHT31;50512;53.666;9.700;2024-02-23T05:56:24;5.47;88.42
64198;SHT31;50512;53.666;9.700;2024-02-23T05:58:51;5.51;88.79
64198;SHT31;50512;53.666;9.700;2024-02-23T06:01:17;5.50;88.71
64198;SHT31;50512;53.666;9.700;2024-02-23T06:03:44;5.47;88.61
64198;SHT31;50512;53.666;9.700;2024-02-23T06:06:12;5.51;88.53
64198;SHT31;50512;53.666;9.700;2024-02-23T06:08:39;5.54;88.10
64198;SHT31;50512;53.666;9.700;2024-02-23T06:11:05;5.51;88.43
64198;SHT31;50512;53.666;9.700;2024-02-23T06:13:32;5.47;88.68
64198;SHT31;50512;53.666;9.700;2024-02-23T06:15:59;5.42;88.07
64198;SHT31;50512;53.666;9.700;2024-02-23T06:18:26;5.30;88.26
64198;SHT31;50512;53.666;9.700;2024-02-23T06:20:52;5.25;88.11
64198;SHT31;50512;53.666;9.700;2024-02-23T06:23:20;5.22;89.05
64198;SHT31;50512;53.666;9.700;2024-02-23T06:25:47;5.18;88.18
64198;SHT31;50512;53.666;9.700;2024-02-23T06:28:13;5.13;88.36
64198;SHT31;50512;53.666;9.700;2024-02-23T06:30:40;5.05;89.14
64198;SHT31;50512;53.666;9.700;2024-02-23T06:33:06;4.92;89.79
64198;SHT31;50512;53.666;9.700;2024-02-23T06:35:33;4.93;89.14
64198;SHT31;50512;53.666;9.700;2024-02-23T06:38:00;4.95;89.40
64198;SHT31;50512;53.666;9.700;2024-02-23T06:40:28;4.95;89.64
64198;SHT31;50512;53.666;9.700;2024-02-23T06:42:54;4.93;89.84
64198;SHT31;50512;53.666;9.700;2024-02-23T06:45:20;4.96;89.63
64198;SHT31;50512;53.666;9.700;2024-02-23T06:47:51;5.08;89.50
64198;SHT31;50512;53.666;9.700;2024-02-23T06:50:17;5.05;90.01
64198;SHT31;50512;53.666;9.700;2024-02-23T06:52:44;5.13;88.96
64198;SHT31;50512;53.666;9.700;2024-02-23T06:55:12;5.19;89.03
64198;SHT31;50512;53.666;9.700;2024-02-23T06:57:40;5.15;89.04
64198;SHT31;50512;53.666;9.700;2024-02-23T07:00:07;5.15;89.34
64198;SHT31;50512;53.666;9.700;2024-02-23T07:02:35;5.18;89.29
64198;SHT31;50512;53.666;9.700;2024-02-23T07:05:03;5.23;89.64
64198;SHT31;50512;53.666;9.700;2024-02-23T07:07:30;5.20;89.26
64198;SHT31;50512;53.666;9.700;2024-02-23T07:09:58;5.25;88.76
64198;SHT31;50512;53.666;9.700;2024-02-23T07:12:24;5.25;88.70
64198;SHT31;50512;53.666;9.700;2024-02-23T07:14:53;5.25;88.47
64198;SHT31;50512;53.666;9.700;2024-02-23T07:17:20;5.25;88.99
64198;SHT31;50512;53.666;9.700;2024-02-23T07:19:46;5.25;89.03
64198;SHT31;50512;53.666;9.700;2024-02-23T07:22:13;5.26;89.43
64198;SHT31;50512;53.666;9.700;2024-02-23T07:24:41;5.33;89.27
64198;SHT31;50512;53.666;9.700;2024-02-23T07:27:08;5.29;89.28
64198;SHT31;50512;53.666;9.700;2024-02-23T07:29:34;5.36;89.07
64198;SHT31;50512;53.666;9.700;2024-02-23T07:32:03;5.37;88.54
64198;SHT31;50512;53.666;9.700;2024-02-23T07:34:30;5.47;88.32
64198;SHT31;50512;53.666;9.700;2024-02-23T07:36:57;5.58;88.22
64198;SHT31;50512;53.666;9.700;2024-02-23T07:39:23;5.77;87.47
64198;SHT31;50512;53.666;9.700;2024-02-23T07:41:50;6.06;87.29
64198;SHT31;50512;53.666;9.700;2024-02-23T07:44:16;6.26;86.35
64198;SHT31;50512;53.666;9.700;2024-02-23T07:46:43;6.54;85.76
64198;SHT31;50512;53.666;9.700;2024-02-23T07:49:11;6.50;85.03
64198;SHT31;50512;53.666;9.700;2024-02-23T07:51:37;6.71;84.89
64198;SHT31;50512;53.666;9.700;2024-02-23T07:54:03;6.61;85.16
64198;SHT31;50512;53.666;9.700;2024-02-23T07:56:30;6.70;84.98
64198;SHT31;50512;53.666;9.700;2024-02-23T07:58:57;6.87;85.12
64198;SHT31;50512;53.666;9.700;2024-02-23T08:01:24;7.15;84.48
64198;SHT31;50512;53.666;9.700;2024-02-23T08:03:51;7.02;84.42
64198;SHT31;50512;53.666;9.700;2024-02-23T08:06:18;6.88;84.44
64198;SHT31;50512;53.666;9.700;2024-02-23T08:08:45;7.15;84.64
64198;SHT31;50512;53.666;9.700;2024-02-23T08:11:12;7.20;84.18
64198;SHT31;50512;53.666;9.700;2024-02-23T08:13:39;7.46;83.97
64198;SHT31;50512;53.666;9.700;2024-02-23T08:16:06;7.64;82.73
64198;SHT31;50512;53.666;9.700;2024-02-23T08:18:32;7.60;83.02
64198;SHT31;50512;53.666;9.700;2024-02-23T08:20:59;7.56;83.02
64198;SHT31;50512;53.666;9.700;2024-02-23T08:23:28;7.88;81.45
64198;SHT31;50512;53.666;9.700;2024-02-23T08:25:55;8.15;81.17
64198;SHT31;50512;53.666;9.700;2024-02-23T08:28:23;8.47;82.18
64198;SHT31;50512;53.666;9.700;2024-02-23T08:30:50;8.60;81.76
64198;SHT31;50512;53.666;9.700;2024-02-23T08:33:16;9.37;77.76
64198;SHT31;50512;53.666;9.700;2024-02-23T08:35:43;8.88;78.50
64198;SHT31;50512;53.666;9.700;2024-02-23T08:38:10;7.13;82.02
64198;SHT31;50512;53.666;9.700;2024-02-23T08:40:38;6.58;84.52
64198;SHT31;50512;53.666;9.700;2024-02-23T08:43:05;6.63;84.76
64198;SHT31;50512;53.666;9.700;2024-02-23T08:45:31;6.78;84.55
64198;SHT31;50512;53.666;9.700;2024-02-23T08:47:57;6.96;84.57
64198;SHT31;50512;53.666;9.700;2024-02-23T08:50:24;6.89;84.02
64198;SHT31;50512;53.666;9.700;2024-02-23T08:52:50;6.96;83.20
64198;SHT31;50512;53.666;9.700;2024-02-23T08:55:17;6.75;82.78
64198;SHT31;50512;53.666;9.700;2024-02-23T08:57:45;6.81;82.95
64198;SHT31;50512;53.666;9.700;2024-02-23T09:00:13;6.94;83.46
64198;SHT31;50512;53.666;9.700;2024-02-23T09:02:39;6.84;82.58
64198;SHT31;50512;53.666;9.700;2024-02-23T09:05:07;6.80;82.06
64198;SHT31;50512;53.666;9.700;2024-02-23T09:07:34;6.84;82.50
64198;SHT31;50512;53.666;9.700;2024-02-23T09:10:00;6.95;82.93
64198;SHT31;50512;53.666;9.700;2024-02-23T09:12:27;7.01;82.36
64198;SHT31;50512;53.666;9.700;2024-02-23T09:14:55;7.09;81.12
64198;SHT31;50512;53.666;9.700;2024-02-23T09:17:21;7.06;81.77
64198;SHT31;50512;53.666;9.700;2024-02-23T09:19:48;7.09;82.02
64198;SHT31;50512;53.666;9.700;2024-02-23T09:22:15;7.19;81.31
64198;SHT31;50512;53.666;9.700;2024-02-23T09:24:41;7.18;81.22
64198;SHT31;50512;53.666;9.700;2024-02-23T09:27:08;7.20;81.84
64198;SHT31;50512;53.666;9.700;2024-02-23T09:29:35;7.19;81.63
64198;SHT31;50512;53.666;9.700;2024-02-23T09:32:03;7.27;81.23
64198;SHT31;50512;53.666;9.700;2024-02-23T09:34:30;7.22;80.80
64198;SHT31;50512;53.666;9.700;2024-02-23T09:36:56;7.27;81.41
64198;SHT31;50512;53.666;9.700;2024-02-23T09:39:23;7.26;82.00
64198;SHT31;50512;53.666;9.700;2024-02-23T09:41:51;7.22;81.67
64198;SHT31;50512;53.666;9.700;2024-02-23T09:44:20;7.24;82.11
64198;SHT31;50512;53.666;9.700;2024-02-23T09:46:48;7.22;81.99
64198;SHT31;50512;53.666;9.700;2024-02-23T09:49:16;7.19;81.18
64198;SHT31;50512;53.666;9.700;2024-02-23T09:51:42;7.30;81.70
64198;SHT31;50512;53.666;9.700;2024-02-23T09:54:09;7.50;82.08
64198;SHT31;50512;53.666;9.700;2024-02-23T09:56:36;7.49;80.47
64198;SHT31;50512;53.666;9.700;2024-02-23T09:59:03;7.51;81.25
64198;SHT31;50512;53.666;9.700;2024-02-23T10:01:31;7.53;80.93
64198;SHT31;50512;53.666;9.700;2024-02-23T10:03:59;7.53;81.28
64198;SHT31;50512;53.666;9.700;2024-02-23T10:06:27;7.37;80.02
64198;SHT31;50512;53.666;9.700;2024-02-23T10:08:53;7.54;81.34
64198;SHT31;50512;53.666;9.700;2024-02-23T10:11:20;7.64;81.68
64198;SHT31;50512;53.666;9.700;2024-02-23T10:13:47;7.53;80.36
64198;SHT31;50512;53.666;9.700;2024-02-23T10:16:15;7.50;79.87
64198;SHT31;50512;53.666;9.700;2024-02-23T10:18:42;7.56;81.17
64198;SHT31;50512;53.666;9.700;2024-02-23T10:21:08;7.60;81.25
64198;SHT31;50512;53.666;9.700;2024-02-23T10:23:36;7.63;81.95
64198;SHT31;50512;53.666;9.700;2024-02-23T10:26:04;7.49;80.76
64198;SHT31;50512;53.666;9.700;2024-02-23T10:28:31;7.49;80.83
64198;SHT31;50512;53.666;9.700;2024-02-23T10:30:57;7.60;80.79
64198;SHT31;50512;53.666;9.700;2024-02-23T10:33:27;7.63;80.99
64198;SHT31;50512;53.666;9.700;2024-02-23T10:35:56;7.63;80.83
64198;SHT31;50512;53.666;9.700;2024-02-23T10:38:23;7.60;80.18
64198;SHT31;50512;53.666;9.700;2024-02-23T10:40:54;7.63;79.98
64198;SHT31;50512;53.666;9.700;2024-02-23T10:43:27;7.63;79.98
64198;SHT31;50512;53.666;9.700;2024-02-23T10:45:57;7.56;80.15
64198;SHT31;50512;53.666;9.700;2024-02-23T10:48:24;7.61;81.04
64198;SHT31;50512;53.666;9.700;2024-02-23T10:50:51;7.66;79.96
64198;SHT31;50512;53.666;9.700;2024-02-23T10:53:18;7.61;78.70
64198;SHT31;50512;53.666;9.700;2024-02-23T10:55:46;7.57;78.22
64198;SHT31;50512;53.666;9.700;2024-02-23T10:58:14;7.53;79.09
64198;SHT31;50512;53.666;9.700;2024-02-23T11:00:41;7.49;78.49
64198;SHT31;50512;53.666;9.700;2024-02-23T11:03:11;7.51;79.31
64198;SHT31;50512;53.666;9.700;2024-02-23T11:05:38;7.47;79.17
64198;SHT31;50512;53.666;9.700;2024-02-23T11:08:06;7.51;79.54
64198;SHT31;50512;53.666;9.700;2024-02-23T11:10:41;7.54;79.33
64198;SHT31;50512;53.666;9.700;2024-02-23T11:13:08;7.50;79.69
64198;SHT31;50512;53.666;9.700;2024-02-23T11:15:41;7.49;79.90
64198;SHT31;50512;53.666;9.700;2024-02-23T11:18:21;7.44;79.20
64198;SHT31;50512;53.666;9.700;2024-02-23T11:20:53;7.47;79.53
64198;SHT31;50512;53.666;9.700;2024-02-23T11:23:21;7.50;79.76
64198;SHT31;50512;53.666;9.700;2024-02-23T11:25:59;7.60;79.22
64198;SHT31;50512;53.666;9.700;2024-02-23T11:28:26;7.70;78.73
64198;SHT31;50512;53.666;9.700;2024-02-23T11:30:53;7.78;78.71
64198;SHT31;50512;53.666;9.700;2024-02-23T11:33:26;7.87;79.79
64198;SHT31;50512;53.666;9.700;2024-02-23T11:35:52;7.89;79.88
64198;SHT31;50512;53.666;9.700;2024-02-23T11:38:21;7.79;79.60
64198;SHT31;50512;53.666;9.700;2024-02-23T11:40:48;7.74;78.79
64198;SHT31;50512;53.666;9.700;2024-02-23T11:43:14;7.73;78.84
64198;SHT31;50512;53.666;9.700;2024-02-23T11:45:46;7.71;78.97
64198;SHT31;50512;53.666;9.700;2024-02-23T11:48:14;7.81;80.07
64198;SHT31;50512;53.666;9.700;2024-02-23T11:50:41;7.73;78.26
64198;SHT31;50512;53.666;9.700;2024-02-23T11:53:08;7.75;77.85
64198;SHT31;50512;53.666;9.700;2024-02-23T11:55:35;7.94;78.84
64198;SHT31;50512;53.666;9.700;2024-02-23T11:58:01;7.99;78.67
64198;SHT31;50512;53.666;9.700;2024-02-23T12:00:28;7.96;78.31
64198;SHT31;50512;53.666;9.700;2024-02-23T12:02:55;7.94;78.43
64198;SHT31;50512;53.666;9.700;2024-02-23T12:05:23;7.96;78.25
64198;SHT31;50512;53.666;9.700;2024-02-23T12:07:49;7.95;78.13
64198;SHT31;50512;53.666;9.700;2024-02-23T12:10:16;7.94;77.33
64198;SHT31;50512;53.666;9.700;2024-02-23T12:12:43;8.05;78.04
64198;SHT31;50512;53.666;9.700;2024-02-23T12:15:09;8.22;78.23
64198;SHT31;50512;53.666;9.700;2024-02-23T12:17:36;8.16;77.36
64198;SHT31;50512;53.666;9.700;2024-02-23T12:20:03;8.19;76.97
64198;SHT31;50512;53.666;9.700;2024-02-23T12:22:31;8.28;77.64
64198;SHT31;50512;53.666;9.700;2024-02-23T12:24:58;8.28;77.70
64198;SHT31;50512;53.666;9.700;2024-02-23T12:27:24;8.10;76.24
64198;SHT31;50512;53.666;9.700;2024-02-23T12:29:52;8.03;77.17
64198;SHT31;50512;53.666;9.700;2024-02-23T12:32:20;7.99;76.65
64198;SHT31;50512;53.666;9.700;2024-02-23T12:34:47;8.07;75.89
64198;SHT31;50512;53.666;9.700;2024-02-23T12:37:14;8.09;75.09
64198;SHT31;50512;53.666;9.700;2024-02-23T12:39:42;8.13;76.06
64198;SHT31;50512;53.666;9.700;2024-02-23T12:42:09;8.09;74.21
64198;SHT31;50512;53.666;9.700;2024-02-23T12:44:35;8.09;75.03
64198;SHT31;50512;53.666;9.700;2024-02-23T12:47:02;8.02;73.24
64198;SHT31;50512;53.666;9.700;2024-02-23T12:49:28;8.06;74.45
64198;SHT31;50512;53.666;9.700;2024-02-23T12:51:55;8.10;74.43
64198;SHT31;50512;53.666;9.700;2024-02-23T12:54:22;8.15;75.36
64198;SHT31;50512;53.666;9.700;2024-02-23T12:56:49;8.07;73.62
64198;SHT31;50512;53.666;9.700;2024-02-23T12:59:16;8.10;73.80
64198;SHT31;50512;53.666;9.700;2024-02-23T13:01:43;8.15;75.58
64198;SHT31;50512;53.666;9.700;2024-02-23T13:04:10;8.10;74.90
64198;SHT31;50512;53.666;9.700;2024-02-23T13:06:38;8.10;74.49
64198;SHT31;50512;53.666;9.700;2024-02-23T13:09:05;8.12;73.68
64198;SHT31;50512;53.666;9.700;2024-02-23T13:11:34;8.16;75.21
64198;SHT31;50512;53.666;9.700;2024-02-23T13:14:02;8.22;74.67
64198;SHT31;50512;53.666;9.700;2024-02-23T13:16:28;8.22;74.30
64198;SHT31;50512;53.666;9.700;2024-02-23T13:18:55;8.16;74.80
64198;SHT31;50512;53.666;9.700;2024-02-23T13:21:21;8.21;73.49
64198;SHT31;50512;53.666;9.700;2024-02-23T13:23:49;8.23;72.72
64198;SHT31;50512;53.666;9.700;2024-02-23T13:26:16;8.23;73.72
64198;SHT31;50512;53.666;9.700;2024-02-23T13:28:42;8.17;74.61
64198;SHT31;50512;53.666;9.700;2024-02-23T13:31:10;8.17;73.07
64198;SHT31;50512;53.666;9.700;2024-02-23T13:33:38;8.21;73.70
64198;SHT31;50512;53.666;9.700;2024-02-23T13:36:05;8.15;73.59
64198;SHT31;50512;53.666;9.700;2024-02-23T13:38:32;8.19;74.16
64198;SHT31;50512;53.666;9.700;2024-02-23T13:41:03;8.17;73.43
64198;SHT31;50512;53.666;9.700;2024-02-23T13:43:30;8.16;72.96
64198;SHT31;50512;53.666;9.700;2024-02-23T13:45:56;8.19;72.86
64198;SHT31;50512;53.666;9.700;2024-02-23T13:48:24;8.22;72.80
64198;SHT31;50512;53.666;9.700;2024-02-23T13:50:51;8.21;72.75
64198;SHT31;50512;53.666;9.700;2024-02-23T13:53:17;8.16;73.32
64198;SHT31;50512;53.666;9.700;2024-02-23T13:55:44;8.15;73.79
64198;SHT31;50512;53.666;9.700;2024-02-23T13:58:10;8.17;74.04
64198;SHT31;50512;53.666;9.700;2024-02-23T14:00:37;8.25;73.89
64198;SHT31;50512;53.666;9.700;2024-02-23T14:03:04;8.34;73.33
64198;SHT31;50512;53.666;9.700;2024-02-23T14:05:32;8.49;74.48
64198;SHT31;50512;53.666;9.700;2024-02-23T14:07:59;8.63;73.43
64198;SHT31;50512;53.666;9.700;2024-02-23T14:10:26;8.95;72.57
64198;SHT31;50512;53.666;9.700;2024-02-23T14:12:52;8.70;72.86
64198;SHT31;50512;53.666;9.700;2024-02-23T14:15:20;8.53;71.85
64198;SHT31;50512;53.666;9.700;2024-02-23T14:17:46;8.49;73.55
64198;SHT31;50512;53.666;9.700;2024-02-23T14:20:14;8.43;72.46
64198;SHT31;50512;53.666;9.700;2024-02-23T14:22:42;8.36;72.05
64198;SHT31;50512;53.666;9.700;2024-02-23T14:25:08;8.39;71.25
64198;SHT31;50512;53.666;9.700;2024-02-23T14:27:35;8.36;72.29
64198;SHT31;50512;53.666;9.700;2024-02-23T14:30:01;8.40;72.41
64198;SHT31;50512;53.666;9.700;2024-02-23T14:32:28;8.40;73.35
64198;SHT31;50512;53.666;9.700;2024-02-23T14:34:54;8.39;72.65
64198;SHT31;50512;53.666;9.700;2024-02-23T14:37:22;8.44;71.59
64198;SHT31;50512;53.666;9.700;2024-02-23T14:39:50;8.43;72.30
64198;SHT31;50512;53.666;9.700;2024-02-23T14:42:17;8.44;72.43
64198;SHT31;50512;53.666;9.700;2024-02-23T14:44:44;8.39;73.44
64198;SHT31;50512;53.666;9.700;2024-02-23T14:47:11;8.44;73.24
64198;SHT31;50512;53.666;9.700;2024-02-23T14:49:37;8.46;71.95
64198;SHT31;50512;53.666;9.700;2024-02-23T14:52:04;8.39;72.78
64198;SHT31;50512;53.666;9.700;2024-02-23T14:54:31;8.39;72.73
64198;SHT31;50512;53.666;9.700;2024-02-23T14:56:59;8.46;71.32
64198;SHT31;50512;53.666;9.700;2024-02-23T14:59:26;8.39;73.06
64198;SHT31;50512;53.666;9.700;2024-02-23T15:01:52;8.30;73.82
64198;SHT31;50512;53.666;9.700;2024-02-23T15:04:19;8.34;72.27
64198;SHT31;50512;53.666;9.700;2024-02-23T15:06:45;8.39;72.72
64198;SHT31;50512;53.666;9.700;2024-02-23T15:09:12;8.37;72.17
64198;SHT31;50512;53.666;9.700;2024-02-23T15:11:38;8.40;72.45
64198;SHT31;50512;53.666;9.700;2024-02-23T15:14:06;8.42;72.56
64198;SHT31;50512;53.666;9.700;2024-02-23T15:16:33;8.42;72.37
64198;SHT31;50512;53.666;9.700;2024-02-23T15:18:59;8.44;72.00
64198;SHT31;50512;53.666;9.700;2024-02-23T15:21:25;8.37;73.51
64198;SHT31;50512;53.666;9.700;2024-02-23T15:23:52;8.36;73.48
64198;SHT31;50512;53.666;9.700;2024-02-23T15:26:19;8.34;74.18
64198;SHT31;50512;53.666;9.700;2024-02-23T15:28:45;8.43;72.63
64198;SHT31;50512;53.666;9.700;2024-02-23T15:31:13;8.40;73.55
64198;SHT31;50512;53.666;9.700;2024-02-23T15:33:40;8.37;74.22
64198;SHT31;50512;53.666;9.700;2024-02-23T15:36:06;8.40;73.92
64198;SHT31;50512;53.666;9.700;2024-02-23T15:38:34;8.43;73.59
64198;SHT31;50512;53.666;9.700;2024-02-23T15:41:00;8.47;73.44
64198;SHT31;50512;53.666;9.700;2024-02-23T15:43:27;8.50;73.06